Snoqualmie River: Carnation station

back to: Snoqualmie river
Carnation station Summary - (NOAA Hydrograph: CRNW1)
flood stage: 54.0 ft
Latest reading:
Wed05/27 02:15 am 48.77 ft 7190 cfs (+120/hr)
Past 24hr max:
Tue05/26 03:45 pm 49.01 ft 8040 cfs
Forecasted crests: (published Tue 05/26/20 05:29 pm)
Sun05/31 11:00 pm 49.72 ft 9000 cfs

Carnation station Details

Latest Readings

Last 100 Readings:
Wed05/27 02:15 am 48.77 ft 7190 cfs
Wed05/27 02:00 am 48.76 ft 7160 cfs
Wed05/27 01:45 am 48.77 ft 7190 cfs
Wed05/27 01:30 am 48.79 ft 7260 cfs
Wed05/27 01:15 am 48.78 ft 7230 cfs
Wed05/27 01:00 am 48.78 ft 7230 cfs
Wed05/27 12:45 am 48.78 ft 7230 cfs
Wed05/27 12:30 am 48.79 ft 7260 cfs
Wed05/27 12:15 am 48.8 ft 7300 cfs
Wed05/27 12:00 am 48.81 ft 7330 cfs
Tue05/26 11:45 pm 48.82 ft 7370 cfs
Tue05/26 11:30 pm 48.82 ft 7370 cfs
Tue05/26 11:15 pm 48.82 ft 7370 cfs
Tue05/26 11:00 pm 48.82 ft 7370 cfs
Tue05/26 10:45 pm 48.84 ft 7430 cfs
Tue05/26 10:30 pm 48.84 ft 7430 cfs
Tue05/26 10:15 pm 48.85 ft 7470 cfs
Tue05/26 10:00 pm 48.85 ft 7470 cfs
Tue05/26 09:45 pm 48.86 ft 7500 cfs
Tue05/26 09:30 pm 48.86 ft 7500 cfs
Tue05/26 09:15 pm 48.87 ft 7540 cfs
Tue05/26 09:00 pm 48.88 ft 7570 cfs
Tue05/26 08:45 pm 48.88 ft 7570 cfs
Tue05/26 08:30 pm 48.89 ft 7610 cfs
Tue05/26 08:15 pm 48.89 ft 7610 cfs
Tue05/26 08:00 pm 48.92 ft 7710 cfs
Tue05/26 07:45 pm 48.93 ft 7750 cfs
Tue05/26 07:30 pm 48.92 ft 7710 cfs
Tue05/26 07:15 pm 48.92 ft 7710 cfs
Tue05/26 07:00 pm 48.92 ft 7710 cfs
Tue05/26 06:45 pm 48.93 ft 7750 cfs
Tue05/26 06:30 pm 48.95 ft 7820 cfs
Tue05/26 06:15 pm 48.96 ft 7860 cfs
Tue05/26 06:00 pm 48.97 ft 7890 cfs
Tue05/26 05:45 pm 48.97 ft 7890 cfs
Tue05/26 05:30 pm 48.98 ft 7930 cfs
Tue05/26 05:15 pm 49.0 ft 8000 cfs
Tue05/26 05:00 pm 49.0 ft 8000 cfs
Tue05/26 04:45 pm 48.99 ft 7960 cfs
Tue05/26 04:30 pm 49.01 ft 8030 cfs
Tue05/26 04:15 pm 49.0 ft 8000 cfs
Tue05/26 04:00 pm 49.0 ft 8000 cfs
Tue05/26 03:45 pm 49.01 ft 8040 cfs
Tue05/26 03:30 pm 49.0 ft 8000 cfs
Tue05/26 03:15 pm 49.01 ft 8030 cfs
Tue05/26 03:00 pm 48.99 ft 7960 cfs
Tue05/26 02:45 pm 48.98 ft 7930 cfs
Tue05/26 02:30 pm 48.99 ft 7960 cfs
Tue05/26 02:15 pm 49.0 ft 8000 cfs
Tue05/26 02:00 pm 48.99 ft 7960 cfs
Tue05/26 01:45 pm 48.99 ft 7960 cfs
Tue05/26 01:30 pm 48.98 ft 7930 cfs
Tue05/26 01:15 pm 48.98 ft 7930 cfs
Tue05/26 01:00 pm 48.96 ft 7860 cfs
Tue05/26 12:45 pm 48.96 ft 7860 cfs
Tue05/26 12:30 pm 48.97 ft 7890 cfs
Tue05/26 12:15 pm 48.97 ft 7890 cfs
Tue05/26 12:00 pm 48.96 ft 7860 cfs
Tue05/26 11:45 am 48.95 ft 7820 cfs
Tue05/26 11:30 am 48.96 ft 7860 cfs
Tue05/26 11:15 am 48.95 ft 7820 cfs
Tue05/26 11:00 am 48.95 ft 7820 cfs
Tue05/26 10:45 am 48.95 ft 7820 cfs
Tue05/26 10:30 am 48.94 ft 7790 cfs
Tue05/26 10:15 am 48.93 ft 7750 cfs
Tue05/26 10:00 am 48.92 ft 7710 cfs
Tue05/26 09:45 am 48.92 ft 7710 cfs
Tue05/26 09:30 am 48.9 ft 7640 cfs
Tue05/26 09:15 am 48.9 ft 7640 cfs
Tue05/26 09:00 am 48.87 ft 7540 cfs
Tue05/26 08:45 am 48.86 ft 7500 cfs
Tue05/26 08:30 am 48.85 ft 7470 cfs
Tue05/26 08:15 am 48.84 ft 7430 cfs
Tue05/26 08:00 am 48.82 ft 7370 cfs
Tue05/26 07:45 am 48.79 ft 7260 cfs
Tue05/26 07:30 am 48.78 ft 7230 cfs
Tue05/26 07:15 am 48.75 ft 7130 cfs
Tue05/26 07:00 am 48.74 ft 7090 cfs
Tue05/26 06:45 am 48.72 ft 7020 cfs
Tue05/26 06:30 am 48.69 ft 6920 cfs
Tue05/26 06:15 am 48.66 ft 6820 cfs
Tue05/26 06:00 am 48.64 ft 6750 cfs
Tue05/26 05:45 am 48.62 ft 6690 cfs
Tue05/26 05:30 am 48.6 ft 6620 cfs
Tue05/26 05:15 am 48.58 ft 6560 cfs
Tue05/26 05:00 am 48.56 ft 6490 cfs
Tue05/26 04:45 am 48.53 ft 6390 cfs
Tue05/26 04:30 am 48.49 ft 6260 cfs
Tue05/26 04:15 am 48.48 ft 6230 cfs
Tue05/26 04:00 am 48.46 ft 6170 cfs
Tue05/26 03:45 am 48.43 ft 6070 cfs
Tue05/26 03:30 am 48.41 ft 6010 cfs
Tue05/26 03:15 am 48.39 ft 5940 cfs
Tue05/26 03:00 am 48.35 ft 5820 cfs
Tue05/26 02:45 am 48.33 ft 5760 cfs
Tue05/26 02:30 am 48.3 ft 5660 cfs
Tue05/26 02:15 am 48.29 ft 5630 cfs
Tue05/26 02:00 am 48.26 ft 5540 cfs
Tue05/26 01:45 am 48.24 ft 5480 cfs
Tue05/26 01:30 am 48.22 ft 5420 cfs

Latest Forecasts

Currently Forecasted Readings:
Tue05/26 11:00 pm 48.98 ft 7925 cfs
Wed05/27 05:00 am 48.72 ft 7031 cfs
Wed05/27 11:00 am 48.43 ft 6061 cfs
Wed05/27 05:00 pm 48.19 ft 5327 cfs
Wed05/27 11:00 pm 48.0 ft 4778 cfs
Thu05/28 05:00 am 47.88 ft 4490 cfs
Thu05/28 11:00 am 47.8 ft 4331 cfs
Thu05/28 05:00 pm 47.76 ft 4232 cfs
Thu05/28 11:00 pm 47.71 ft 4133 cfs
Fri05/29 05:00 am 47.68 ft 4061 cfs
Fri05/29 11:00 am 47.67 ft 4044 cfs
Fri05/29 05:00 pm 47.66 ft 4029 cfs
Fri05/29 11:00 pm 47.63 ft 3972 cfs
Sat05/30 05:00 am 47.61 ft 3912 cfs
Sat05/30 11:00 am 47.6 ft 3896 cfs
Sat05/30 05:00 pm 47.6 ft 3897 cfs
Sat05/30 11:00 pm 47.67 ft 4038 cfs
Sun05/31 05:00 am 48.16 ft 5238 cfs
Sun05/31 11:00 am 48.76 ft 7160 cfs
Sun05/31 05:00 pm 49.19 ft 8706 cfs
Sun05/31 11:00 pm 49.72 ft 9000 cfs
Mon06/01 05:00 am 49.03 ft 8114 cfs
Mon06/01 11:00 am 48.75 ft 7130 cfs
Mon06/01 05:00 pm 48.5 ft 6295 cfs
Mon06/01 11:00 pm 48.29 ft 5624 cfs
Tue06/02 05:00 am 48.11 ft 5102 cfs
Tue06/02 11:00 am 47.98 ft 4728 cfs
Tue06/02 05:00 pm 47.86 ft 4450 cfs
Tue06/02 11:00 pm 47.74 ft 4200 cfs
Wed06/03 05:00 am 47.64 ft 3981 cfs
Wed06/03 11:00 am 47.56 ft 3825 cfs
Wed06/03 05:00 pm 47.51 ft 3706 cfs
Wed06/03 11:00 pm 47.45 ft 3586 cfs
Thu06/04 05:00 am 47.39 ft 3465 cfs
Thu06/04 11:00 am 47.34 ft 3366 cfs
Thu06/04 05:00 pm 47.3 ft 3286 cfs
Thu06/04 11:00 pm 47.25 ft 3204 cfs
Fri06/05 05:00 am 47.21 ft 3121 cfs

Snoqualmie River flood gauge data supplied by the
National Weather Service Northwest River Forecast Center.

Sign up for Floodzilla alerts.